sensor_id;sensor_type;location;lat;lon;timestamp;pressure;altitude;pressure_sealevel;temperature;humidity
49459;BME280;35354;51.296;16.924;2022-11-15T00:00:20;99773.22;;;4.98;100.00
49459;BME280;35354;51.296;16.924;2022-11-15T00:02:45;99769.81;;;4.96;100.00
49459;BME280;35354;51.296;16.924;2022-11-15T00:05:11;99766.38;;;4.95;100.00
49459;BME280;35354;51.296;16.924;2022-11-15T00:07:36;99751.06;;;4.89;100.00
49459;BME280;35354;51.296;16.924;2022-11-15T00:10:02;99751.75;;;4.96;100.00
49459;BME280;35354;51.296;16.924;2022-11-15T00:12:28;99753.44;;;4.97;100.00
49459;BME280;35354;51.296;16.924;2022-11-15T00:14:53;99752.63;;;4.95;100.00
49459;BME280;35354;51.296;16.924;2022-11-15T00:17:19;99743.22;;;4.94;100.00
49459;BME280;35354;51.296;16.924;2022-11-15T00:19:44;99738.94;;;4.91;100.00
49459;BME280;35354;51.296;16.924;2022-11-15T00:22:10;99741.47;;;4.93;100.00
49459;BME280;35354;51.296;16.924;2022-11-15T00:24:35;99746.69;;;4.91;100.00
49459;BME280;35354;51.296;16.924;2022-11-15T00:27:01;99742.38;;;4.92;100.00
49459;BME280;35354;51.296;16.924;2022-11-15T00:29:26;99742.38;;;4.92;100.00
49459;BME280;35354;51.296;16.924;2022-11-15T00:31:52;99744.16;;;4.90;100.00
49459;BME280;35354;51.296;16.924;2022-11-15T00:34:17;99740.75;;;4.88;100.00
49459;BME280;35354;51.296;16.924;2022-11-15T00:36:43;99739.09;;;4.85;100.00
49459;BME280;35354;51.296;16.924;2022-11-15T00:39:08;99732.38;;;4.78;100.00
49459;BME280;35354;51.296;16.924;2022-11-15T00:41:34;99743.50;;;4.80;100.00
49459;BME280;35354;51.296;16.924;2022-11-15T00:43:59;99731.69;;;4.70;100.00
49459;BME280;35354;51.296;16.924;2022-11-15T00:46:24;99724.88;;;4.66;100.00
49459;BME280;35354;51.296;16.924;2022-11-15T00:48:50;99718.91;;;4.64;100.00
49459;BME280;35354;51.296;16.924;2022-11-15T00:51:15;99717.31;;;4.58;100.00
49459;BME280;35354;51.296;16.924;2022-11-15T00:53:40;99724.97;;;4.61;100.00
49459;BME280;35354;51.296;16.924;2022-11-15T00:56:06;99737.75;;;4.67;100.00
49459;BME280;35354;51.296;16.924;2022-11-15T00:58:31;99730.94;;;4.63;100.00
49459;BME280;35354;51.296;16.924;2022-11-15T01:01:08;99712.28;;;4.52;100.00
49459;BME280;35354;51.296;16.924;2022-11-15T01:03:35;99729.31;;;4.59;100.00
49459;BME280;35354;51.296;16.924;2022-11-15T01:06:00;99736.28;;;4.56;100.00
49459;BME280;35354;51.296;16.924;2022-11-15T01:08:26;99726.09;;;4.49;100.00
49459;BME280;35354;51.296;16.924;2022-11-15T01:10:51;99720.13;;;4.46;100.00
49459;BME280;35354;51.296;16.924;2022-11-15T01:13:16;99707.38;;;4.40;100.00
49459;BME280;35354;51.296;16.924;2022-11-15T01:15:42;99711.66;;;4.41;100.00
49459;BME280;35354;51.296;16.924;2022-11-15T01:18:07;99713.28;;;4.45;100.00
49459;BME280;35354;51.296;16.924;2022-11-15T01:20:33;99726.13;;;4.46;100.00
49459;BME280;35354;51.296;16.924;2022-11-15T01:22:58;99712.41;;;4.46;100.00
49459;BME280;35354;51.296;16.924;2022-11-15T01:25:24;99720.97;;;4.46;100.00
49459;BME280;35354;51.296;16.924;2022-11-15T01:27:49;99719.34;;;4.42;100.00
49459;BME280;35354;51.296;16.924;2022-11-15T01:30:14;99710.00;;;4.37;100.00
49459;BME280;35354;51.296;16.924;2022-11-15T01:32:40;99710.81;;;4.40;100.00
49459;BME280;35354;51.296;16.924;2022-11-15T01:35:05;99693.78;;;4.32;100.00
49459;BME280;35354;51.296;16.924;2022-11-15T01:37:31;99698.00;;;4.36;100.00
49459;BME280;35354;51.296;16.924;2022-11-15T01:39:56;99692.06;;;4.32;100.00
49459;BME280;35354;51.296;16.924;2022-11-15T01:42:21;99690.38;;;4.31;100.00
49459;BME280;35354;51.296;16.924;2022-11-15T01:44:50;99685.22;;;4.30;100.00
49459;BME280;35354;51.296;16.924;2022-11-15T01:47:24;99673.28;;;4.25;100.00
49459;BME280;35354;51.296;16.924;2022-11-15T01:49:58;99678.38;;;4.29;100.00
49459;BME280;35354;51.296;16.924;2022-11-15T01:52:27;99674.09;;;4.28;100.00
49459;BME280;35354;51.296;16.924;2022-11-15T01:57:53;99673.25;;;4.27;100.00
49459;BME280;35354;51.296;16.924;2022-11-15T02:00:19;99672.44;;;4.25;100.00
49459;BME280;35354;51.296;16.924;2022-11-15T02:02:45;99664.69;;;4.27;100.00
49459;BME280;35354;51.296;16.924;2022-11-15T02:05:11;99651.09;;;4.18;100.00
49459;BME280;35354;51.296;16.924;2022-11-15T02:07:36;99651.03;;;4.21;100.00
49459;BME280;35354;51.296;16.924;2022-11-15T02:10:08;99659.59;;;4.23;100.00
49459;BME280;35354;51.296;16.924;2022-11-15T02:12:33;99658.78;;;4.21;100.00
49459;BME280;35354;51.296;16.924;2022-11-15T02:15:00;99647.69;;;4.18;100.00
49459;BME280;35354;51.296;16.924;2022-11-15T02:33:38;99656.34;;;4.14;100.00
49459;BME280;35354;51.296;16.924;2022-11-15T02:39:18;99656.41;;;4.11;100.00
49459;BME280;35354;51.296;16.924;2022-11-15T02:41:53;99645.34;;;4.04;100.00
49459;BME280;35354;51.296;16.924;2022-11-15T02:44:26;99648.03;;;4.01;100.00
49459;BME280;35354;51.296;16.924;2022-11-15T02:47:06;99645.50;;;3.98;100.00
49459;BME280;35354;51.296;16.924;2022-11-15T02:49:52;99641.34;;;3.91;100.00
49459;BME280;35354;51.296;16.924;2022-11-15T02:52:21;99627.59;;;3.90;100.00
49459;BME280;35354;51.296;16.924;2022-11-15T02:54:55;99626.75;;;3.90;100.00
49459;BME280;35354;51.296;16.924;2022-11-15T02:57:44;99627.56;;;3.93;100.00
49459;BME280;35354;51.296;16.924;2022-11-15T03:00:12;99622.53;;;3.86;100.00
49459;BME280;35354;51.296;16.924;2022-11-15T03:02:42;99630.19;;;3.90;100.00
49459;BME280;35354;51.296;16.924;2022-11-15T03:08:08;99620.03;;;3.83;100.00
49459;BME280;35354;51.296;16.924;2022-11-15T03:16:08;99625.31;;;3.77;100.00
49459;BME280;35354;51.296;16.924;2022-11-15T03:18:41;99615.94;;;3.72;100.00
49459;BME280;35354;51.296;16.924;2022-11-15T03:21:11;99605.63;;;3.72;100.00
49459;BME280;35354;51.296;16.924;2022-11-15T03:23:39;99599.66;;;3.70;100.00
49459;BME280;35354;51.296;16.924;2022-11-15T03:26:07;99599.75;;;3.66;100.00
49459;BME280;35354;51.296;16.924;2022-11-15T03:28:37;99606.63;;;3.67;100.00
49459;BME280;35354;51.296;16.924;2022-11-15T03:31:04;99603.16;;;3.68;100.00
49459;BME280;35354;51.296;16.924;2022-11-15T03:33:53;99595.50;;;3.63;100.00
49459;BME280;35354;51.296;16.924;2022-11-15T03:36:21;99607.50;;;3.64;100.00
49459;BME280;35354;51.296;16.924;2022-11-15T03:38:48;99598.09;;;3.62;100.00
49459;BME280;35354;51.296;16.924;2022-11-15T03:41:24;99599.03;;;3.58;100.00
49459;BME280;35354;51.296;16.924;2022-11-15T03:44:10;99600.72;;;3.60;100.00
49459;BME280;35354;51.296;16.924;2022-11-15T03:46:46;99590.56;;;3.53;100.00
49459;BME280;35354;51.296;16.924;2022-11-15T03:49:27;99585.53;;;3.46;100.00
49459;BME280;35354;51.296;16.924;2022-11-15T03:51:57;99593.19;;;3.49;100.00
49459;BME280;35354;51.296;16.924;2022-11-15T03:54:23;99572.00;;;3.35;100.00
49459;BME280;35354;51.296;16.924;2022-11-15T03:56:48;99578.00;;;3.36;100.00
49459;BME280;35354;51.296;16.924;2022-11-15T03:59:14;99597.69;;;3.38;100.00
49459;BME280;35354;51.296;16.924;2022-11-15T04:01:39;99594.38;;;3.33;100.00
49459;BME280;35354;51.296;16.924;2022-11-15T04:04:04;99595.22;;;3.34;100.00
49459;BME280;35354;51.296;16.924;2022-11-15T04:06:29;99582.38;;;3.31;100.00
49459;BME280;35354;51.296;16.924;2022-11-15T04:08:55;99580.78;;;3.25;100.00
49459;BME280;35354;51.296;16.924;2022-11-15T04:11:20;99580.75;;;3.27;100.00
49459;BME280;35354;51.296;16.924;2022-11-15T04:13:45;99585.00;;;3.28;100.00
49459;BME280;35354;51.296;16.924;2022-11-15T04:16:11;99584.13;;;3.29;100.00
49459;BME280;35354;51.296;16.924;2022-11-15T04:18:36;99583.38;;;3.23;100.00
49459;BME280;35354;51.296;16.924;2022-11-15T04:21:02;99582.66;;;3.17;100.00
49459;BME280;35354;51.296;16.924;2022-11-15T04:23:46;99568.25;;;3.05;100.00
49459;BME280;35354;51.296;16.924;2022-11-15T04:26:30;99578.44;;;3.11;100.00
49459;BME280;35354;51.296;16.924;2022-11-15T04:28:56;99582.72;;;3.11;100.00
49459;BME280;35354;51.296;16.924;2022-11-15T04:31:40;99585.38;;;3.08;100.00
49459;BME280;35354;51.296;16.924;2022-11-15T04:34:05;99575.94;;;3.08;100.00
49459;BME280;35354;51.296;16.924;2022-11-15T04:36:30;99580.16;;;3.11;100.00
49459;BME280;35354;51.296;16.924;2022-11-15T04:39:14;99575.81;;;3.14;100.00
49459;BME280;35354;51.296;16.924;2022-11-15T04:41:40;99560.50;;;3.08;100.00
49459;BME280;35354;51.296;16.924;2022-11-15T04:44:05;99563.81;;;3.13;100.00
49459;BME280;35354;51.296;16.924;2022-11-15T04:46:30;99572.31;;;3.18;100.00
49459;BME280;35354;51.296;16.924;2022-11-15T04:48:56;99573.16;;;3.19;100.00
49459;BME280;35354;51.296;16.924;2022-11-15T04:51:21;99570.59;;;3.19;100.00
49459;BME280;35354;51.296;16.924;2022-11-15T04:53:46;99559.53;;;3.14;100.00
49459;BME280;35354;51.296;16.924;2022-11-15T04:56:12;99558.69;;;3.13;100.00
49459;BME280;35354;51.296;16.924;2022-11-15T04:58:37;99553.63;;;3.09;100.00
49459;BME280;35354;51.296;16.924;2022-11-15T05:01:10;99558.75;;;3.09;100.00
49459;BME280;35354;51.296;16.924;2022-11-15T05:03:36;99567.41;;;3.05;100.00
49459;BME280;35354;51.296;16.924;2022-11-15T05:06:20;99557.25;;;2.97;100.00
49459;BME280;35354;51.296;16.924;2022-11-15T05:08:45;99561.50;;;2.98;100.00
49459;BME280;35354;51.296;16.924;2022-11-15T05:11:11;99550.28;;;3.02;100.00
49459;BME280;35354;51.296;16.924;2022-11-15T05:13:36;99552.03;;;3.02;100.00
49459;BME280;35354;51.296;16.924;2022-11-15T05:16:01;99552.91;;;3.00;100.00
49459;BME280;35354;51.296;16.924;2022-11-15T05:18:27;99554.63;;;3.00;100.00
49459;BME280;35354;51.296;16.924;2022-11-15T05:20:52;99551.19;;;3.01;100.00
49459;BME280;35354;51.296;16.924;2022-11-15T05:23:17;99546.84;;;3.03;100.00
49459;BME280;35354;51.296;16.924;2022-11-15T05:25:43;99548.56;;;3.04;100.00
49459;BME280;35354;51.296;16.924;2022-11-15T05:28:08;99555.44;;;3.02;100.00
49459;BME280;35354;51.296;16.924;2022-11-15T05:30:33;99541.84;;;2.94;100.00
49459;BME280;35354;51.296;16.924;2022-11-15T05:32:59;99534.34;;;2.83;100.00
49459;BME280;35354;51.296;16.924;2022-11-15T05:35:39;99545.44;;;2.85;100.00
49459;BME280;35354;51.296;16.924;2022-11-15T05:38:04;99547.13;;;2.86;100.00
49459;BME280;35354;51.296;16.924;2022-11-15T05:40:30;99553.16;;;2.87;100.00
49459;BME280;35354;51.296;16.924;2022-11-15T05:42:57;99542.13;;;2.79;100.00
49459;BME280;35354;51.296;16.924;2022-11-15T05:45:24;99547.22;;;2.82;100.00
49459;BME280;35354;51.296;16.924;2022-11-15T05:47:50;99540.41;;;2.78;100.00
49459;BME280;35354;51.296;16.924;2022-11-15T05:50:17;99531.09;;;2.72;100.00
49459;BME280;35354;51.296;16.924;2022-11-15T05:52:44;99524.38;;;2.63;100.00
49459;BME280;35354;51.296;16.924;2022-11-15T05:55:11;99531.22;;;2.64;100.00
49459;BME280;35354;51.296;16.924;2022-11-15T05:57:37;99550.84;;;2.68;100.00
49459;BME280;35354;51.296;16.924;2022-11-15T06:00:03;99541.50;;;2.66;100.00
49459;BME280;35354;51.296;16.924;2022-11-15T06:02:29;99534.63;;;2.65;100.00
49459;BME280;35354;51.296;16.924;2022-11-15T06:04:54;99528.72;;;2.61;100.00
49459;BME280;35354;51.296;16.924;2022-11-15T06:07:20;99535.47;;;2.65;100.00
49459;BME280;35354;51.296;16.924;2022-11-15T06:09:45;99529.53;;;2.63;100.00
49459;BME280;35354;51.296;16.924;2022-11-15T06:12:10;99532.13;;;2.60;100.00
49459;BME280;35354;51.296;16.924;2022-11-15T06:14:36;99548.31;;;2.67;100.00
49459;BME280;35354;51.296;16.924;2022-11-15T06:17:01;99539.78;;;2.65;100.00
49459;BME280;35354;51.296;16.924;2022-11-15T06:19:27;99545.84;;;2.62;100.00
49459;BME280;35354;51.296;16.924;2022-11-15T06:21:58;99548.31;;;2.67;100.00
49459;BME280;35354;51.296;16.924;2022-11-15T06:24:23;99536.47;;;2.57;100.00
49459;BME280;35354;51.296;16.924;2022-11-15T06:26:48;99533.16;;;2.48;100.00
49459;BME280;35354;51.296;16.924;2022-11-15T06:29:14;99537.50;;;2.46;100.00
49459;BME280;35354;51.296;16.924;2022-11-15T06:31:39;99545.09;;;2.53;100.00
49459;BME280;35354;51.296;16.924;2022-11-15T06:34:04;99533.91;;;2.57;100.00
49459;BME280;35354;51.296;16.924;2022-11-15T06:36:30;99556.00;;;2.70;100.00
49459;BME280;35354;51.296;16.924;2022-11-15T06:38:56;99552.63;;;2.66;100.00
49459;BME280;35354;51.296;16.924;2022-11-15T06:41:21;99562.69;;;2.80;100.00
49459;BME280;35354;51.296;16.924;2022-11-15T06:43:47;99560.91;;;2.82;100.00
49459;BME280;35354;51.296;16.924;2022-11-15T06:46:12;99570.34;;;2.83;100.00
49459;BME280;35354;51.296;16.924;2022-11-15T06:48:37;99560.88;;;2.85;100.00
49459;BME280;35354;51.296;16.924;2022-11-15T06:51:04;99555.53;;;2.97;100.00
49459;BME280;35354;51.296;16.924;2022-11-15T06:53:30;99546.84;;;3.03;100.00
49459;BME280;35354;51.296;16.924;2022-11-15T06:56:04;99555.88;;;3.25;100.00
49459;BME280;35354;51.296;16.924;2022-11-15T06:58:29;99562.41;;;3.43;100.00
49459;BME280;35354;51.296;16.924;2022-11-15T07:01:03;99558.56;;;3.64;100.00
49459;BME280;35354;51.296;16.924;2022-11-15T07:03:29;99561.53;;;3.88;100.00
49459;BME280;35354;51.296;16.924;2022-11-15T07:05:55;99569.78;;;4.04;100.00
49459;BME280;35354;51.296;16.924;2022-11-15T07:08:22;99577.03;;;4.27;100.00
49459;BME280;35354;51.296;16.924;2022-11-15T07:10:48;99574.06;;;4.43;100.00
49459;BME280;35354;51.296;16.924;2022-11-15T07:13:14;99575.41;;;4.60;100.00
49459;BME280;35354;51.296;16.924;2022-11-15T07:15:39;99579.34;;;4.74;100.00
49459;BME280;35354;51.296;16.924;2022-11-15T07:18:04;99572.22;;;4.84;100.00
49459;BME280;35354;51.296;16.924;2022-11-15T07:20:30;99573.44;;;5.05;100.00
49459;BME280;35354;51.296;16.924;2022-11-15T07:23:05;99565.41;;;5.16;100.00
49459;BME280;35354;51.296;16.924;2022-11-15T07:25:31;99563.06;;;5.39;100.00
49459;BME280;35354;51.296;16.924;2022-11-15T07:28:00;99562.53;;;5.59;100.00
49459;BME280;35354;51.296;16.924;2022-11-15T07:30:26;99553.66;;;5.68;100.00
49459;BME280;35354;51.296;16.924;2022-11-15T07:32:56;99565.94;;;5.91;100.00
49459;BME280;35354;51.296;16.924;2022-11-15T07:35:23;99562.06;;;6.07;100.00
49459;BME280;35354;51.296;16.924;2022-11-15T07:37:55;99563.28;;;6.23;100.00
49459;BME280;35354;51.296;16.924;2022-11-15T07:40:21;99555.25;;;6.33;100.00
49459;BME280;35354;51.296;16.924;2022-11-15T07:42:46;99544.75;;;6.37;100.00
49459;BME280;35354;51.296;16.924;2022-11-15T07:45:18;99548.44;;;6.57;100.00
49459;BME280;35354;51.296;16.924;2022-11-15T07:47:48;99547.16;;;6.70;100.00
49459;BME280;35354;51.296;16.924;2022-11-15T07:50:13;99549.19;;;6.87;100.00
49459;BME280;35354;51.296;16.924;2022-11-15T07:52:39;99546.25;;;6.97;100.00
49459;BME280;35354;51.296;16.924;2022-11-15T07:55:05;99544.31;;;7.04;100.00
49459;BME280;35354;51.296;16.924;2022-11-15T07:57:30;99548.22;;;7.16;100.00
49459;BME280;35354;51.296;16.924;2022-11-15T07:59:55;99535.31;;;7.14;100.00
49459;BME280;35354;51.296;16.924;2022-11-15T08:02:21;99552.09;;;7.29;100.00
49459;BME280;35354;51.296;16.924;2022-11-15T08:04:46;99558.06;;;7.31;100.00
49459;BME280;35354;51.296;16.924;2022-11-15T08:07:12;99557.13;;;7.34;100.00
49459;BME280;35354;51.296;16.924;2022-11-15T08:09:38;99548.44;;;7.35;100.00
49459;BME280;35354;51.296;16.924;2022-11-15T08:12:03;99538.81;;;7.38;100.00
49459;BME280;35354;51.296;16.924;2022-11-15T08:14:29;99541.41;;;7.38;100.00
49459;BME280;35354;51.296;16.924;2022-11-15T08:16:54;99515.03;;;7.27;100.00
49459;BME280;35354;51.296;16.924;2022-11-15T08:19:20;99539.41;;;7.46;100.00
49459;BME280;35354;51.296;16.924;2022-11-15T08:21:45;99531.78;;;7.42;100.00
49459;BME280;35354;51.296;16.924;2022-11-15T08:24:10;99536.75;;;7.48;100.00
49459;BME280;35354;51.296;16.924;2022-11-15T08:26:36;99536.75;;;7.48;100.00
49459;BME280;35354;51.296;16.924;2022-11-15T08:29:01;99519.59;;;7.44;100.00
49459;BME280;35354;51.296;16.924;2022-11-15T08:31:27;99529.38;;;7.61;100.00
49459;BME280;35354;51.296;16.924;2022-11-15T08:33:52;99515.66;;;7.57;100.00
49459;BME280;35354;51.296;16.924;2022-11-15T08:36:17;99525.94;;;7.60;100.00
49459;BME280;35354;51.296;16.924;2022-11-15T08:38:43;99515.63;;;7.59;100.00
49459;BME280;35354;51.296;16.924;2022-11-15T08:41:32;99520.50;;;7.66;100.00
49459;BME280;35354;51.296;16.924;2022-11-15T08:43:58;99518.09;;;7.62;100.00
49459;BME280;35354;51.296;16.924;2022-11-15T08:46:23;99504.38;;;7.58;100.00
49459;BME280;35354;51.296;16.924;2022-11-15T08:48:49;99515.28;;;7.68;100.00
49459;BME280;35354;51.296;16.924;2022-11-15T08:51:14;99509.44;;;7.63;100.00
49459;BME280;35354;51.296;16.924;2022-11-15T08:53:41;99504.78;;;7.47;100.00
49459;BME280;35354;51.296;16.924;2022-11-15T08:56:13;99508.91;;;7.53;100.00
49459;BME280;35354;51.296;16.924;2022-11-15T08:58:39;99514.75;;;7.58;100.00
49459;BME280;35354;51.296;16.924;2022-11-15T09:01:05;99518.25;;;7.57;100.00
49459;BME280;35354;51.296;16.924;2022-11-15T09:03:31;99526.78;;;7.61;100.00
49459;BME280;35354;51.296;16.924;2022-11-15T09:06:00;99514.81;;;7.57;100.00
49459;BME280;35354;51.296;16.924;2022-11-15T09:08:30;99522.53;;;7.58;100.00
49459;BME280;35354;51.296;16.924;2022-11-15T09:10:56;99520.00;;;7.57;100.00
49459;BME280;35354;51.296;16.924;2022-11-15T09:13:21;99518.91;;;7.64;100.00
49459;BME280;35354;51.296;16.924;2022-11-15T09:15:47;99519.06;;;7.59;100.00
49459;BME280;35354;51.296;16.924;2022-11-15T09:18:12;99522.59;;;7.57;100.00
49459;BME280;35354;51.296;16.924;2022-11-15T09:20:38;99525.81;;;7.63;100.00
49459;BME280;35354;51.296;16.924;2022-11-15T09:23:04;99517.75;;;7.71;100.00
49459;BME280;35354;51.296;16.924;2022-11-15T09:25:29;99507.63;;;7.65;100.00
49459;BME280;35354;51.296;16.924;2022-11-15T09:27:55;99513.13;;;7.79;100.00
49459;BME280;35354;51.296;16.924;2022-11-15T09:30:20;99514.53;;;7.88;100.00
49459;BME280;35354;51.296;16.924;2022-11-15T09:32:46;99515.41;;;7.88;100.00
49459;BME280;35354;51.296;16.924;2022-11-15T09:35:11;99518.81;;;7.89;100.00
49459;BME280;35354;51.296;16.924;2022-11-15T09:37:36;99518.53;;;7.96;100.00
49459;BME280;35354;51.296;16.924;2022-11-15T09:40:02;99525.34;;;7.99;100.00
49459;BME280;35354;51.296;16.924;2022-11-15T09:42:49;99526.19;;;7.99;100.00
49459;BME280;35354;51.296;16.924;2022-11-15T09:45:37;99517.28;;;8.07;100.00
49459;BME280;35354;51.296;16.924;2022-11-15T09:50:57;99507.63;;;8.10;100.00
49459;BME280;35354;51.296;16.924;2022-11-15T09:53:29;99503.94;;;8.16;100.00
49459;BME280;35354;51.296;16.924;2022-11-15T09:55:59;99496.72;;;8.24;100.00
49459;BME280;35354;51.296;16.924;2022-11-15T09:58:55;99487.44;;;8.18;100.00
49459;BME280;35354;51.296;16.924;2022-11-15T10:04:25;99475.88;;;8.25;100.00
49459;BME280;35354;51.296;16.924;2022-11-15T10:07:15;99468.09;;;8.25;100.00
49459;BME280;35354;51.296;16.924;2022-11-15T10:09:47;99471.50;;;8.28;100.00
49459;BME280;35354;51.296;16.924;2022-11-15T10:12:16;99454.78;;;8.35;100.00
49459;BME280;35354;51.296;16.924;2022-11-15T10:14:42;99455.63;;;8.35;100.00
49459;BME280;35354;51.296;16.924;2022-11-15T10:20:24;99445.84;;;8.42;100.00
49459;BME280;35354;51.296;16.924;2022-11-15T10:22:55;99457.28;;;8.58;100.00
49459;BME280;35354;51.296;16.924;2022-11-15T10:25:26;99434.75;;;8.59;100.00
49459;BME280;35354;51.296;16.924;2022-11-15T10:30:19;99435.88;;;8.73;100.00
49459;BME280;35354;51.296;16.924;2022-11-15T10:32:46;99438.81;;;8.86;100.00
49459;BME280;35354;51.296;16.924;2022-11-15T10:35:28;99414.84;;;8.80;100.00
49459;BME280;35354;51.296;16.924;2022-11-15T10:38:05;99432.16;;;8.99;100.00
49459;BME280;35354;51.296;16.924;2022-11-15T10:40:31;99427.59;;;9.05;100.00
49459;BME280;35354;51.296;16.924;2022-11-15T10:45:34;99414.50;;;9.08;100.00
49459;BME280;35354;51.296;16.924;2022-11-15T10:50:37;99420.81;;;9.21;100.00
49459;BME280;35354;51.296;16.924;2022-11-15T10:53:04;99419.84;;;9.23;100.00
49459;BME280;35354;51.296;16.924;2022-11-15T10:55:37;99408.25;;;9.31;100.00
49459;BME280;35354;51.296;16.924;2022-11-15T10:58:20;99411.50;;;9.36;100.00
49459;BME280;35354;51.296;16.924;2022-11-15T11:00:47;99406.09;;;9.40;100.00
49459;BME280;35354;51.296;16.924;2022-11-15T11:03:36;99404.88;;;9.47;100.00
49459;BME280;35354;51.296;16.924;2022-11-15T11:06:23;99402.00;;;9.54;100.00
49459;BME280;35354;51.296;16.924;2022-11-15T11:09:19;99397.44;;;9.59;100.00
49459;BME280;35354;51.296;16.924;2022-11-15T11:11:49;99398.34;;;9.58;100.00
49459;BME280;35354;51.296;16.924;2022-11-15T11:14:24;99403.34;;;9.62;100.00
49459;BME280;35354;51.296;16.924;2022-11-15T11:19:53;99398.91;;;9.64;100.00
49459;BME280;35354;51.296;16.924;2022-11-15T11:25:43;99402.06;;;9.71;100.00
49459;BME280;35354;51.296;16.924;2022-11-15T11:28:38;99389.06;;;9.71;100.00
49459;BME280;35354;51.296;16.924;2022-11-15T11:37:34;99387.09;;;9.76;100.00
49459;BME280;35354;51.296;16.924;2022-11-15T11:40:16;99374.78;;;9.80;100.00
49459;BME280;35354;51.296;16.924;2022-11-15T11:42:55;99369.44;;;9.83;100.00
49459;BME280;35354;51.296;16.924;2022-11-15T11:50:32;99354.44;;;9.88;100.00
49459;BME280;35354;51.296;16.924;2022-11-15T11:53:25;99359.19;;;9.97;100.00
49459;BME280;35354;51.296;16.924;2022-11-15T11:56:14;99354.69;;;10.00;100.00
49459;BME280;35354;51.296;16.924;2022-11-15T11:58:43;99349.41;;;10.02;100.00
49459;BME280;35354;51.296;16.924;2022-11-15T12:01:20;99359.81;;;10.02;100.00
49459;BME280;35354;51.296;16.924;2022-11-15T12:04:14;99350.88;;;10.08;98.68
49459;BME280;35354;51.296;16.924;2022-11-15T12:06:52;99343.13;;;10.06;98.38
49459;BME280;35354;51.296;16.924;2022-11-15T12:09:35;99333.09;;;9.98;97.96
49459;BME280;35354;51.296;16.924;2022-11-15T12:12:11;99346.28;;;10.13;98.54
49459;BME280;35354;51.296;16.924;2022-11-15T12:17:13;99326.44;;;10.10;98.47
49459;BME280;35354;51.296;16.924;2022-11-15T12:19:40;99323.56;;;10.16;98.81
49459;BME280;35354;51.296;16.924;2022-11-15T12:25:04;99329.38;;;10.21;99.24
49459;BME280;35354;51.296;16.924;2022-11-15T12:27:39;99314.00;;;10.17;99.93
49459;BME280;35354;51.296;16.924;2022-11-15T12:30:17;99300.88;;;10.18;100.00
49459;BME280;35354;51.296;16.924;2022-11-15T12:32:58;99323.13;;;10.26;99.70
49459;BME280;35354;51.296;16.924;2022-11-15T12:35:34;99312.00;;;10.22;100.00
49459;BME280;35354;51.296;16.924;2022-11-15T12:37:59;99311.88;;;10.25;99.77
49459;BME280;35354;51.296;16.924;2022-11-15T12:40:37;99307.41;;;10.27;99.76
49459;BME280;35354;51.296;16.924;2022-11-15T12:45:43;99312.47;;;10.30;100.00
49459;BME280;35354;51.296;16.924;2022-11-15T12:53:40;99304.28;;;10.38;100.00
49459;BME280;35354;51.296;16.924;2022-11-15T13:07:02;99285.97;;;10.39;100.00
49459;BME280;35354;51.296;16.924;2022-11-15T13:12:04;99280.16;;;10.34;100.00
49459;BME280;35354;51.296;16.924;2022-11-15T13:19:47;99265.72;;;10.29;99.55
49459;BME280;35354;51.296;16.924;2022-11-15T13:22:13;99273.28;;;10.33;98.96
49459;BME280;35354;51.296;16.924;2022-11-15T13:24:57;99264.63;;;10.33;98.99
49459;BME280;35354;51.296;16.924;2022-11-15T13:27:23;99252.38;;;10.35;98.68
49459;BME280;35354;51.296;16.924;2022-11-15T13:29:48;99270.78;;;10.47;98.31
49459;BME280;35354;51.296;16.924;2022-11-15T13:32:15;99252.06;;;10.41;98.47
49459;BME280;35354;51.296;16.924;2022-11-15T13:34:46;99266.13;;;10.54;98.25
49459;BME280;35354;51.296;16.924;2022-11-15T13:37:32;99263.75;;;10.65;97.81
49459;BME280;35354;51.296;16.924;2022-11-15T13:42:43;99259.41;;;10.66;98.12
49459;BME280;35354;51.296;16.924;2022-11-15T13:45:13;99245.53;;;10.65;98.04
49459;BME280;35354;51.296;16.924;2022-11-15T13:47:39;99252.66;;;10.62;97.18
49459;BME280;35354;51.296;16.924;2022-11-15T13:50:05;99258.91;;;10.59;97.33
49459;BME280;35354;51.296;16.924;2022-11-15T13:52:33;99253.78;;;10.58;97.76
49459;BME280;35354;51.296;16.924;2022-11-15T13:55:03;99259.81;;;10.58;97.49
49459;BME280;35354;51.296;16.924;2022-11-15T13:57:46;99266.81;;;10.58;97.67
49459;BME280;35354;51.296;16.924;2022-11-15T14:03:26;99247.22;;;10.51;97.51
49459;BME280;35354;51.296;16.924;2022-11-15T14:06:15;99259.81;;;10.58;97.64
49459;BME280;35354;51.296;16.924;2022-11-15T14:11:27;99248.19;;;10.48;97.54
49459;BME280;35354;51.296;16.924;2022-11-15T14:16:38;99245.59;;;10.48;97.76
49459;BME280;35354;51.296;16.924;2022-11-15T14:19:05;99243.19;;;10.45;98.09
49459;BME280;35354;51.296;16.924;2022-11-15T14:21:31;99235.50;;;10.42;98.20
49459;BME280;35354;51.296;16.924;2022-11-15T14:24:19;99243.47;;;10.39;98.67
49459;BME280;35354;51.296;16.924;2022-11-15T14:26:45;99250.00;;;10.30;99.05
49459;BME280;35354;51.296;16.924;2022-11-15T14:29:29;99241.03;;;10.18;99.65
49459;BME280;35354;51.296;16.924;2022-11-15T14:32:18;99237.75;;;10.15;99.84
49459;BME280;35354;51.296;16.924;2022-11-15T14:34:45;99225.22;;;10.06;100.00
49459;BME280;35354;51.296;16.924;2022-11-15T14:37:23;99217.19;;;9.93;100.00
49459;BME280;35354;51.296;16.924;2022-11-15T14:39:50;99224.25;;;9.91;100.00
49459;BME280;35354;51.296;16.924;2022-11-15T14:42:16;99221.19;;;9.83;100.00
49459;BME280;35354;51.296;16.924;2022-11-15T14:44:42;99203.66;;;9.69;100.00
49459;BME280;35354;51.296;16.924;2022-11-15T14:47:07;99209.78;;;9.68;100.00
49459;BME280;35354;51.296;16.924;2022-11-15T14:49:33;99213.53;;;9.62;100.00